Time;durP1;ratioP1;P1;durP2;ratioP2;P2;SDS_P1;SDS_P2;PMS_P1;PMS_P2;Temp;Humidity;BMP_temperature;BMP_pressure;BME280_temperature;BME280_humidity;BME280_pressure;Samples;Min_cycle;Max_cycle;Signal;HPM_P1;HPM_P2
2023/01/03 00:01:57;;;;;;;74.00;45.70;;;;;;;4.37;86.72;99396.09;86009;1283;22617;-74
2023/01/03 00:04:00;;;;;;;78.90;47.70;;;;;;;4.34;86.69;99397.00;85900;1287;97981;-73
2023/01/03 00:06:02;;;;;;;81.60;47.70;;;;;;;4.32;86.68;99397.54;85934;1289;25377;-75
2023/01/03 00:08:04;;;;;;;79.40;48.10;;;;;;;4.28;86.68;99401.45;85987;1288;22484;-74
2023/01/03 00:10:09;;;;;;;71.80;44.10;;;;;;;4.26;86.91;99405.29;85939;1288;98977;-74
2023/01/03 00:12:23;;;;;;;74.20;45.30;;;;;;;4.22;86.76;99407.61;86065;1297;24171;-76
2023/01/03 00:14:32;;;;;;;81.90;46.70;;;;;;;4.21;86.78;99409.88;86038;1281;25306;-73
2023/01/03 00:16:33;;;;;;;82.10;48.40;;;;;;;4.19;86.95;99404.52;85990;1281;99064;-75
2023/01/03 00:18:35;;;;;;;70.80;44.80;;;;;;;4.21;86.90;99402.06;86060;1296;22548;-76
2023/01/03 00:20:37;;;;;;;73.30;44.50;;;;;;;4.22;87.19;99398.05;85987;1284;22516;-74
2023/01/03 00:22:38;;;;;;;74.50;43.90;;;;;;;4.24;87.20;99394.18;86021;1288;99848;-74
2023/01/03 00:24:41;;;;;;;81.50;48.20;;;;;;;4.23;87.25;99393.32;85931;1290;26645;-74
2023/01/03 00:26:44;;;;;;;82.70;47.50;;;;;;;4.23;87.28;99395.06;86114;1287;22483;-75
2023/01/03 00:28:45;;;;;;;75.20;45.80;;;;;;;4.23;87.01;99401.15;85826;1281;99077;-74
2023/01/03 00:30:47;;;;;;;89.30;48.00;;;;;;;4.19;87.00;99405.05;85936;1284;22489;-75
2023/01/03 00:32:49;;;;;;;77.90;47.10;;;;;;;4.17;87.12;99406.48;86013;1290;25879;-75
2023/01/03 00:34:51;;;;;;;81.60;46.80;;;;;;;4.14;87.06;99413.64;85961;1288;99864;-74
2023/01/03 00:36:53;;;;;;;81.10;45.30;;;;;;;4.09;87.01;99413.73;85896;1287;23022;-74
2023/01/03 00:38:55;;;;;;;68.40;39.80;;;;;;;3.98;86.86;99395.96;85904;1291;23302;-75
2023/01/03 00:41:09;;;;;;;77.20;43.80;;;;;;;3.96;86.71;99410.09;85967;1281;98886;-75
2023/01/03 00:43:29;;;;;;;74.80;42.90;;;;;;;3.90;86.90;99408.25;86073;1288;23788;-75
2023/01/03 00:45:31;;;;;;;72.70;46.60;;;;;;;3.82;86.82;99405.75;86086;1281;99236;-76
2023/01/03 00:47:32;;;;;;;75.70;48.20;;;;;;;3.78;86.64;99412.23;86045;1287;22480;-76
2023/01/03 00:49:34;;;;;;;70.90;44.30;;;;;;;3.75;86.97;99415.92;85985;1282;22991;-75
2023/01/03 00:51:39;;;;;;;71.70;41.30;;;;;;;3.73;86.98;99422.23;85919;1290;99394;-75
2023/01/03 00:53:44;;;;;;;73.00;44.20;;;;;;;3.68;86.88;99423.34;86051;1288;24454;-76
2023/01/03 00:55:46;;;;;;;77.10;45.30;;;;;;;3.66;86.98;99427.70;86173;1291;22482;-75
2023/01/03 00:57:48;;;;;;;72.90;44.80;;;;;;;3.63;86.84;99436.94;86138;1285;98606;-75
2023/01/03 00:59:50;;;;;;;77.40;46.90;;;;;;;3.60;86.94;99440.10;86080;1281;27491;-76
2023/01/03 01:01:55;;;;;;;83.70;48.80;;;;;;;3.58;87.00;99444.81;86039;1287;22505;-75
2023/01/03 01:04:11;;;;;;;81.90;47.80;;;;;;;3.58;86.90;99448.12;86030;1288;98463;-74
2023/01/03 01:06:13;;;;;;;71.10;42.60;;;;;;;3.56;86.82;99448.14;86026;1283;24282;-74
2023/01/03 01:08:15;;;;;;;76.90;46.60;;;;;;;3.51;87.01;99444.20;86172;1281;22584;-74
2023/01/03 01:10:18;;;;;;;67.30;42.80;;;;;;;3.51;87.11;99448.02;85925;1288;202210;-74
2023/01/03 01:12:20;;;;;;;70.40;41.40;;;;;;;3.53;87.37;99442.29;86077;1281;22637;-75
2023/01/03 01:14:26;;;;;;;77.70;44.40;;;;;;;3.54;87.09;99441.39;85996;1305;25306;-75
2023/01/03 01:16:31;;;;;;;63.50;39.50;;;;;;;3.54;86.98;99447.81;85935;1291;99329;-74
2023/01/03 01:18:33;;;;;;;64.20;41.20;;;;;;;3.51;87.04;99439.88;86046;1288;22511;-74
2023/01/03 01:20:38;;;;;;;71.30;42.10;;;;;;;3.51;87.27;99446.64;86067;1287;25254;-76
2023/01/03 01:22:40;;;;;;;71.40;42.20;;;;;;;3.52;87.10;99447.15;86004;1287;98056;-76
2023/01/03 01:24:42;;;;;;;59.70;37.00;;;;;;;3.52;86.99;99450.98;86189;1286;23610;-75
2023/01/03 01:26:45;;;;;;;70.90;41.00;;;;;;;3.48;87.14;99443.55;85996;1284;22632;-75
2023/01/03 01:28:48;;;;;;;76.20;43.30;;;;;;;3.51;87.24;99453.77;86033;1281;98998;-76
2023/01/03 01:30:50;;;;;;;71.60;42.20;;;;;;;3.53;87.32;99455.66;86019;1288;23029;-75
2023/01/03 01:32:51;;;;;;;79.50;42.00;;;;;;;3.52;87.34;99456.36;86058;1288;26588;-75
2023/01/03 01:34:53;;;;;;;67.80;40.60;;;;;;;3.52;87.13;99459.33;85943;1289;98180;-75
2023/01/03 01:36:55;;;;;;;71.30;41.40;;;;;;;3.51;87.27;99464.20;85874;1284;22498;-75
2023/01/03 01:39:01;;;;;;;68.20;41.40;;;;;;;3.51;87.38;99458.45;85884;1283;22773;-74
2023/01/03 01:41:03;;;;;;;59.90;39.80;;;;;;;3.49;87.24;99461.95;85963;1290;98877;-76
2023/01/03 01:45:44;;;;;;;62.00;40.00;;;;;;;3.47;87.27;99469.10;86064;1287;99239;-74
2023/01/03 01:48:00;;;;;;;71.10;40.80;;;;;;;3.43;87.19;99458.04;86108;1288;23869;-76
2023/01/03 01:50:20;;;;;;;71.40;43.40;;;;;;;3.40;87.14;99462.92;86238;1284;25693;-75
2023/01/03 01:52:23;;;;;;;66.80;42.90;;;;;;;3.37;87.15;99463.13;86215;1287;98318;-74
2023/01/03 01:54:25;;;;;;;80.90;42.90;;;;;;;3.38;87.24;99461.73;86045;1284;22733;-75
2023/01/03 01:56:37;;;;;;;72.70;44.20;;;;;;;3.40;87.38;99463.10;86333;1287;22521;-76
2023/01/03 01:58:43;;;;;;;79.20;46.20;;;;;;;3.40;87.44;99461.19;86114;1285;98995;-75
2023/01/03 02:00:45;;;;;;;78.20;45.30;;;;;;;3.41;87.25;99461.70;86011;1290;22580;-75
2023/01/03 02:02:49;;;;;;;78.30;45.00;;;;;;;3.41;87.30;99461.36;86053;1283;23924;-74
2023/01/03 02:04:54;;;;;;;79.50;45.30;;;;;;;3.41;87.54;99465.00;86117;1288;99040;-74
2023/01/03 02:06:56;;;;;;;73.30;46.10;;;;;;;3.41;87.22;99466.39;86119;1280;22516;-75
2023/01/03 02:08:59;;;;;;;78.20;42.30;;;;;;;3.41;87.35;99460.14;86080;1297;22880;-75
2023/01/03 02:14:53;;;;;;;74.40;43.30;;;;;;;3.37;87.21;99453.92;85419;1289;25742;-74
2023/01/03 02:17:32;;;;;;;73.70;40.80;;;;;;;3.36;87.19;99458.45;85205;1293;99238;-75
2023/01/03 02:20:17;;;;;;;73.40;42.00;;;;;;;3.33;87.25;99458.83;85375;1294;23330;-76
2023/01/03 02:22:39;;;;;;;67.80;41.70;;;;;;;3.30;87.39;99455.74;85176;1297;98144;-75
2023/01/03 02:25:01;;;;;;;70.40;41.10;;;;;;;3.27;87.20;99456.98;85342;1290;22556;-75
2023/01/03 02:27:39;;;;;;;65.50;39.90;;;;;;;3.22;87.11;99453.57;85470;1296;22525;-76
2023/01/03 02:30:03;;;;;;;63.60;40.00;;;;;;;3.18;87.15;99451.16;85267;1306;26144;-75
2023/01/03 02:32:32;;;;;;;66.90;40.00;;;;;;;3.17;87.06;99450.85;85297;1298;22503;-75
2023/01/03 02:35:04;;;;;;;56.70;35.90;;;;;;;3.14;87.10;99457.81;85389;1290;99196;-76
2023/01/03 02:37:31;;;;;;;64.80;39.10;;;;;;;3.12;87.15;99464.27;85227;1297;22479;-75
2023/01/03 02:39:52;;;;;;;55.00;36.60;;;;;;;3.10;87.24;99469.48;85328;1296;98050;-75
2023/01/03 02:44:37;;;;;;;57.60;35.90;;;;;;;3.12;87.23;99481.45;85487;1293;24399;-75
2023/01/03 02:47:07;;;;;;;64.20;41.00;;;;;;;3.09;87.29;99479.39;85592;1287;99016;-74
2023/01/03 02:49:22;;;;;;;69.10;42.20;;;;;;;3.16;87.42;99481.58;85771;1288;23756;-75
2023/01/03 02:51:52;;;;;;;69.20;41.60;;;;;;;3.21;87.69;99479.45;85996;1289;99912;-75
2023/01/03 02:53:57;;;;;;;69.50;39.90;;;;;;;3.30;87.72;99473.81;86066;1288;22491;-74
2023/01/03 02:56:05;;;;;;;64.60;40.80;;;;;;;3.41;87.80;99474.38;86156;1288;22477;-75
2023/01/03 02:58:21;;;;;;;58.50;37.60;;;;;;;3.52;88.05;99474.60;85955;1312;99511;-75
2023/01/03 03:00:27;;;;;;;72.10;41.50;;;;;;;3.64;88.07;99471.36;86307;1283;22557;-75
2023/01/03 03:02:34;;;;;;;68.20;40.30;;;;;;;3.74;88.05;99469.31;86213;1288;22612;-75
2023/01/03 03:04:38;;;;;;;65.50;39.60;;;;;;;3.84;88.32;99473.36;86081;1295;99632;-73
2023/01/03 03:07:18;;;;;;;68.50;39.30;;;;;;;3.96;88.42;99473.02;86088;1283;23712;-74
2023/01/03 03:09:20;;;;;;;59.40;37.60;;;;;;;4.08;88.38;99474.77;86112;1288;99118;-75
2023/01/03 03:13:56;;;;;;;56.00;34.90;;;;;;;4.25;88.44;99471.21;86126;1281;22453;-74
2023/01/03 03:16:04;;;;;;;53.20;33.00;;;;;;;4.36;88.41;99474.73;86021;1288;97927;-74
2023/01/03 03:18:15;;;;;;;48.30;32.40;;;;;;;4.42;88.39;99472.55;86188;1281;22481;-75
2023/01/03 03:25:20;;;;;;;50.80;31.00;;;;;;;4.64;88.25;99490.14;86277;1281;22467;-75
2023/01/03 03:29:43;;;;;;;;;;;;;;;4.76;88.32;99511.88;86314;1281;26041;-74
2023/01/03 03:31:49;;;;;;;;;;;;;;;4.82;88.33;99509.17;86149;1288;22449;-74
2023/01/03 03:34:29;;;;;;;38.40;25.20;;;;;;;4.89;88.34;99516.55;86193;1287;85329;-75
2023/01/03 03:36:34;;;;;;;38.70;25.00;;;;;;;4.97;88.34;99514.84;85626;1294;22498;-74
2023/01/03 03:38:39;;;;;;;34.90;23.20;;;;;;;5.04;88.32;99518.91;85628;1287;22524;-74
2023/01/03 03:45:57;;;;;;;31.80;22.30;;;;;;;5.19;88.17;99526.34;85520;1286;99371;-74
2023/01/03 03:48:21;;;;;;;34.70;23.60;;;;;;;5.24;88.34;99528.67;85632;1294;22514;-75
2023/01/03 03:50:42;;;;;;;33.80;22.30;;;;;;;5.22;88.09;99517.89;85570;1294;22543;-74
2023/01/03 03:52:48;;;;;;;32.20;22.20;;;;;;;5.38;88.26;99530.34;85635;1295;98033;-74
2023/01/03 03:54:57;;;;;;;35.80;21.00;;;;;;;5.44;88.25;99526.58;85796;1292;22498;-74
2023/01/03 03:57:11;;;;;;;31.90;22.00;;;;;;;5.51;88.23;99524.34;85399;1297;22874;-74
2023/01/03 03:59:14;;;;;;;36.30;22.20;;;;;;;5.58;88.17;99526.48;85656;1287;99081;-74
2023/01/03 04:01:19;;;;;;;32.70;21.80;;;;;;;5.64;88.01;99529.86;85299;1289;23050;-75
2023/01/03 04:03:22;;;;;;;39.40;22.30;;;;;;;5.69;88.19;99531.86;85382;1294;99360;-74
2023/01/03 04:05:30;;;;;;;36.10;22.20;;;;;;;5.74;88.14;99535.77;85779;1286;22505;-75
2023/01/03 04:07:31;;;;;;;32.20;20.50;;;;;;;5.79;88.17;99537.23;85681;1293;23540;-75
2023/01/03 04:09:33;;;;;;;30.70;22.00;;;;;;;5.83;88.16;99533.67;85439;1294;99580;-75
2023/01/03 04:11:35;;;;;;;33.90;21.50;;;;;;;5.89;87.95;99537.92;85918;1289;25261;-74
2023/01/03 04:13:38;;;;;;;31.90;20.60;;;;;;;5.93;87.93;99540.45;85999;1281;22479;-75
2023/01/03 04:15:39;;;;;;;33.90;21.60;;;;;;;6.00;87.87;99544.02;86058;1281;98038;-74
2023/01/03 04:17:42;;;;;;;34.40;21.00;;;;;;;6.05;87.98;99547.22;86110;1281;22907;-75
2023/01/03 04:19:44;;;;;;;30.70;20.90;;;;;;;6.08;88.21;99547.17;86045;1288;22499;-75
2023/01/03 04:21:45;;;;;;;33.00;22.80;;;;;;;6.11;87.78;99549.73;85978;1281;99101;-74
2023/01/03 04:23:48;;;;;;;34.80;21.70;;;;;;;6.13;87.79;99551.08;85884;1283;23827;-75
2023/01/03 04:25:50;;;;;;;31.60;21.60;;;;;;;6.16;87.84;99551.71;85896;1284;25311;-75
2023/01/03 04:27:52;;;;;;;35.70;22.50;;;;;;;6.05;87.72;99534.11;85928;1283;99223;-75
2023/01/03 04:29:53;;;;;;;33.70;22.00;;;;;;;6.19;87.58;99559.85;86032;1288;22554;-75
2023/01/03 04:31:55;;;;;;;33.00;21.20;;;;;;;6.19;87.68;99559.15;85924;1283;22743;-75
2023/01/03 04:33:57;;;;;;;31.80;22.10;;;;;;;6.21;87.72;99568.02;85989;1288;99049;-74
2023/01/03 04:35:59;;;;;;;33.30;21.20;;;;;;;6.22;87.68;99570.78;85956;1288;22525;-75
2023/01/03 04:38:02;;;;;;;36.40;22.30;;;;;;;6.23;87.41;99573.55;85955;1280;23195;-75
2023/01/03 04:40:04;;;;;;;34.90;22.30;;;;;;;6.24;87.69;99574.23;85923;1290;99051;-74
2023/01/03 04:44:00;;;;;;;36.50;24.40;;;;;;;6.25;87.57;99576.83;86175;1280;22725;-75
2023/01/03 04:44:27;;;;;;;37.80;23.50;;;;;;;6.25;87.61;99577.69;86019;1281;22605;-75
2023/01/03 04:46:37;;;;;;;35.90;23.00;;;;;;;6.26;87.73;99577.50;86041;1280;98895;-75
2023/01/03 04:48:40;;;;;;;38.00;23.80;;;;;;;6.27;87.56;99576.09;86112;1290;22452;-75
2023/01/03 04:50:57;;;;;;;35.30;23.30;;;;;;;6.28;87.63;99583.56;86027;1287;22623;-75
2023/01/03 04:52:58;;;;;;;39.50;23.40;;;;;;;6.28;87.54;99583.91;86081;1281;99442;-75
2023/01/03 04:55:00;;;;;;;37.00;23.80;;;;;;;6.29;87.48;99582.33;86033;1280;22539;-75
2023/01/03 04:57:02;;;;;;;37.40;23.50;;;;;;;6.29;87.62;99583.89;86056;1283;24240;-74
2023/01/03 04:59:04;;;;;;;41.30;24.20;;;;;;;6.29;87.47;99584.75;85998;1288;99225;-75
2023/01/03 05:01:06;;;;;;;45.90;25.80;;;;;;;6.27;87.65;99580.44;86059;1288;22560;-75
2023/01/03 05:03:08;;;;;;;38.50;24.80;;;;;;;6.28;87.53;99581.81;86050;1287;22524;-76
2023/01/03 05:05:10;;;;;;;37.80;23.60;;;;;;;6.27;87.63;99588.81;86131;1280;98932;-75
2023/01/03 05:07:12;;;;;;;37.20;23.00;;;;;;;6.27;87.71;99591.10;86142;1287;24765;-74
2023/01/03 05:09:16;;;;;;;38.60;22.20;;;;;;;6.27;87.36;99590.92;86034;1291;26653;-75
2023/01/03 05:11:18;;;;;;;43.00;22.50;;;;;;;6.26;87.59;99588.31;86092;1280;99067;-74
2023/01/03 05:13:20;;;;;;;40.10;22.80;;;;;;;6.26;87.26;99591.46;86088;1287;22523;-75
2023/01/03 05:15:22;;;;;;;35.20;22.80;;;;;;;6.25;87.52;99596.54;85984;1290;99299;-75
2023/01/03 05:17:24;;;;;;;35.60;21.70;;;;;;;6.25;87.58;99595.14;86049;1291;22517;-75
2023/01/03 05:19:25;;;;;;;37.40;23.50;;;;;;;6.26;87.34;99600.02;85969;1283;22591;-75
2023/01/03 05:26:20;;;;;;;33.60;23.00;;;;;;;6.24;87.47;99613.67;86203;1288;22502;-74
2023/01/03 05:28:23;;;;;;;40.70;22.20;;;;;;;6.23;87.15;99618.23;85993;1291;99471;-74
2023/01/03 05:30:24;;;;;;;52.40;23.60;;;;;;;6.22;87.24;99616.50;86117;1287;22611;-74
2023/01/03 05:32:28;;;;;;;35.10;22.70;;;;;;;6.21;87.31;99619.65;86191;1280;22738;-75
2023/01/03 05:34:29;;;;;;;42.00;24.30;;;;;;;6.22;87.37;99630.64;85944;1289;99596;-76
2023/01/03 05:36:31;;;;;;;38.80;24.40;;;;;;;6.22;87.51;99630.12;86316;1288;22508;-75
2023/01/03 05:38:33;;;;;;;38.60;24.20;;;;;;;6.20;87.25;99633.45;86204;1281;22498;-75
2023/01/03 05:40:35;;;;;;;40.20;24.80;;;;;;;6.20;87.37;99637.82;86009;1288;99219;-75
2023/01/03 05:42:36;;;;;;;37.90;25.70;;;;;;;6.19;87.27;99643.42;86121;1288;25979;-75
2023/01/03 05:44:38;;;;;;;36.30;24.10;;;;;;;6.18;87.28;99646.95;86196;1286;23341;-76
2023/01/03 05:46:40;;;;;;;40.80;25.60;;;;;;;6.16;87.30;99659.20;86121;1288;100045;-76
2023/01/03 05:48:42;;;;;;;42.10;25.50;;;;;;;6.14;87.33;99660.45;86043;1290;22518;-75
2023/01/03 05:50:44;;;;;;;42.30;25.20;;;;;;;6.11;87.44;99664.70;85975;1289;26145;-75
2023/01/03 05:52:47;;;;;;;46.90;27.00;;;;;;;6.09;87.25;99668.94;86066;1290;99203;-75
2023/01/03 05:54:49;;;;;;;43.20;26.10;;;;;;;6.06;87.25;99678.23;86021;1288;22520;-75
2023/01/03 05:56:51;;;;;;;40.50;26.20;;;;;;;6.04;87.36;99679.85;85927;1284;22605;-76
2023/01/03 05:58:53;;;;;;;51.40;27.70;;;;;;;6.01;87.25;99673.80;86203;1288;99037;-75
2023/01/03 06:00:55;;;;;;;44.00;26.70;;;;;;;5.98;87.43;99675.58;86187;1283;22478;-75
2023/01/03 06:02:57;;;;;;;38.20;25.90;;;;;;;5.96;87.26;99675.06;86223;1281;22494;-75
2023/01/03 06:04:59;;;;;;;40.80;26.70;;;;;;;5.94;87.25;99675.27;86132;1281;98122;-76
2023/01/03 06:07:01;;;;;;;45.30;26.80;;;;;;;5.91;87.21;99672.88;86223;1298;22522;-74
2023/01/03 06:09:04;;;;;;;48.70;27.50;;;;;;;5.88;87.31;99673.28;86154;1284;24257;-75
2023/01/03 06:11:07;;;;;;;45.00;26.70;;;;;;;5.87;87.37;99675.75;86250;1288;99217;-76
2023/01/03 06:13:09;;;;;;;42.30;26.60;;;;;;;5.86;87.32;99677.52;86239;1287;22441;-75
2023/01/03 06:15:11;;;;;;;45.90;27.10;;;;;;;5.84;87.49;99681.89;86201;1290;22568;-77
2023/01/03 06:19:33;;;;;;;43.10;29.50;;;;;;;5.79;87.30;99686.70;86349;1288;24214;-76
2023/01/03 06:21:35;;;;;;;45.60;27.90;;;;;;;5.77;87.26;99691.96;86099;1287;99408;-75
2023/01/03 06:23:37;;;;;;;47.40;28.20;;;;;;;5.75;87.28;99694.26;86212;1283;25257;-76
2023/01/03 06:25:39;;;;;;;54.60;29.10;;;;;;;5.73;87.39;99703.70;86169;1287;25268;-75
2023/01/03 06:27:43;;;;;;;48.90;29.60;;;;;;;5.72;87.44;99700.58;86216;1281;99291;-75
2023/01/03 06:29:45;;;;;;;45.20;29.00;;;;;;;5.70;87.36;99700.63;86300;1280;22651;-76
2023/01/03 06:31:47;;;;;;;49.40;30.00;;;;;;;5.68;87.49;99709.38;86306;1288;22492;-75
2023/01/03 06:33:49;;;;;;;51.60;30.00;;;;;;;5.66;87.43;99713.75;86189;1291;99593;-75
2023/01/03 06:35:51;;;;;;;50.70;30.10;;;;;;;5.65;87.43;99713.96;86307;1281;22467;-76
2023/01/03 06:37:53;;;;;;;48.30;28.90;;;;;;;5.52;87.34;99699.52;86255;1291;24251;-75
2023/01/03 06:39:55;;;;;;;45.10;29.60;;;;;;;5.61;87.51;99727.42;85984;1283;98030;-76
2023/01/03 06:42:38;;;;;;;52.50;28.50;;;;;;;5.59;87.44;99734.09;86480;1288;22614;-73
2023/01/03 06:44:22;;;;;;;53.70;28.70;;;;;;;5.58;87.46;99742.48;86378;1288;22982;-74
2023/01/03 06:53:36;;;;;;;50.50;27.90;;;;;;;5.51;87.49;99750.08;86379;1288;24230;-74
2023/01/03 06:55:39;;;;;;;51.50;29.60;;;;;;;5.49;87.38;99749.23;86399;1294;22591;-75
2023/01/03 06:57:40;;;;;;;48.20;28.40;;;;;;;5.49;87.48;99753.77;86987;1281;99618;-74
2023/01/03 06:59:44;;;;;;;45.10;29.30;;;;;;;5.47;87.35;99757.46;87218;1298;22429;-75
2023/01/03 07:01:47;;;;;;;47.20;28.00;;;;;;;5.47;87.46;99759.39;86318;1296;22589;-76
2023/01/03 07:03:49;;;;;;;47.50;29.20;;;;;;;5.45;87.57;99763.06;86106;1283;98726;-76
2023/01/03 07:05:51;;;;;;;48.10;29.70;;;;;;;5.44;87.45;99766.39;86452;1285;26520;-73
2023/01/03 07:07:52;;;;;;;47.20;29.20;;;;;;;5.44;87.50;99765.00;86066;1288;22527;-76
2023/01/03 07:09:54;;;;;;;52.50;28.60;;;;;;;5.43;87.58;99769.20;86153;1288;99382;-75
2023/01/03 07:11:56;;;;;;;48.40;30.70;;;;;;;5.41;87.47;99772.36;86062;1290;22508;-75
2023/01/03 07:13:58;;;;;;;52.60;30.50;;;;;;;5.41;87.52;99767.30;86114;1290;22540;-75
2023/01/03 07:15:59;;;;;;;50.70;28.90;;;;;;;5.39;87.55;99768.38;86106;1288;98926;-74
2023/01/03 07:18:17;;;;;;;;;;;;;;;;;;;;;
2023/01/03 07:20:22;;;;;;;49.00;31.00;;;;;;;5.38;87.53;99771.54;86127;1288;24255;-75
2023/01/03 07:22:24;;;;;;;47.60;30.60;;;;;;;5.37;87.52;99779.21;86419;1281;99703;-74
2023/01/03 07:24:26;;;;;;;49.70;31.10;;;;;;;5.37;87.51;99776.61;86206;1287;22563;-75
2023/01/03 07:26:29;;;;;;;53.90;29.60;;;;;;;5.37;87.73;99778.52;86125;1281;25582;-75
2023/01/03 07:28:31;;;;;;;59.30;31.60;;;;;;;5.37;87.63;99778.35;86181;1286;99094;-74
2023/01/03 07:30:37;;;;;;;57.10;31.20;;;;;;;5.37;87.58;99780.96;86113;1281;22539;-75
2023/01/03 07:32:39;;;;;;;53.20;31.30;;;;;;;5.37;87.60;99783.92;86090;1281;26570;-73
2023/01/03 07:34:41;;;;;;;54.50;31.50;;;;;;;5.37;87.67;99786.19;86063;1285;99067;-74
2023/01/03 07:36:42;;;;;;;59.00;32.10;;;;;;;5.37;87.67;99784.45;86052;1281;25520;-74
2023/01/03 07:38:45;;;;;;;55.30;31.80;;;;;;;5.37;87.56;99790.90;85999;1280;26533;-75
2023/01/03 07:40:49;;;;;;;52.60;30.40;;;;;;;5.36;87.66;99791.95;85919;1288;98117;-75
2023/01/03 07:45:11;;;;;;;50.60;31.10;;;;;;;5.33;87.66;99798.61;86072;1284;24923;-75
2023/01/03 07:47:13;;;;;;;55.60;33.50;;;;;;;5.32;87.53;99801.59;85825;1287;99610;-75
2023/01/03 07:49:15;;;;;;;56.60;33.30;;;;;;;5.32;87.62;99799.49;85966;1288;22684;-74
2023/01/03 07:51:19;;;;;;;57.50;35.50;;;;;;;5.29;87.63;99797.45;86023;1281;22735;-74
2023/01/03 07:53:20;;;;;;;60.20;34.60;;;;;;;5.33;87.73;99806.46;86037;1287;99667;-75
2023/01/03 07:55:22;;;;;;;56.10;35.00;;;;;;;5.34;87.61;99816.20;86020;1280;24241;-74
2023/01/03 07:57:26;;;;;;;59.30;33.40;;;;;;;5.36;87.87;99818.78;86136;1281;25898;-74
2023/01/03 07:59:28;;;;;;;57.40;34.10;;;;;;;5.37;87.89;99821.57;86194;1288;97889;-73
2023/01/03 08:01:31;;;;;;;54.80;33.60;;;;;;;5.38;87.84;99819.64;85876;1290;22487;-73
2023/01/03 08:03:35;;;;;;;61.50;35.80;;;;;;;5.39;87.59;99822.41;85849;1286;99185;-75
2023/01/03 08:05:37;;;;;;;56.90;34.70;;;;;;;5.40;87.77;99829.20;85942;1288;25276;-73
2023/01/03 08:07:39;;;;;;;60.90;34.50;;;;;;;5.40;87.69;99833.21;86053;1281;25119;-74
2023/01/03 08:14:22;;;;;;;59.30;34.00;;;;;;;5.42;87.69;99840.15;86204;1281;22466;-75
2023/01/03 08:16:29;;;;;;;57.60;32.70;;;;;;;5.42;87.66;99843.11;86055;1289;99342;-76
2023/01/03 08:18:32;;;;;;;53.50;33.30;;;;;;;5.42;87.86;99839.97;86263;1291;23409;-76
2023/01/03 08:20:34;;;;;;;58.50;32.10;;;;;;;5.42;87.70;99838.58;86124;1291;22595;-75
2023/01/03 08:22:36;;;;;;;55.20;32.20;;;;;;;5.43;87.72;99840.66;86279;1294;98493;-74
2023/01/03 08:24:37;;;;;;;52.80;33.00;;;;;;;5.43;87.64;99838.58;86277;1290;22440;-75
2023/01/03 08:26:40;;;;;;;50.10;31.10;;;;;;;5.42;87.62;99839.27;86154;1291;22462;-75
2023/01/03 08:28:43;;;;;;;51.90;32.10;;;;;;;5.38;87.79;99834.11;86176;1296;100124;-75
2023/01/03 08:30:48;;;;;;;46.70;31.00;;;;;;;5.43;87.70;99844.66;86335;1291;22546;-75
2023/01/03 08:32:52;;;;;;;49.90;31.50;;;;;;;5.44;87.63;99848.85;86481;1283;23225;-76
2023/01/03 08:34:54;;;;;;;58.40;32.70;;;;;;;5.43;87.66;99847.45;86262;1288;98595;-76
2023/01/03 08:37:00;;;;;;;62.50;31.80;;;;;;;5.45;87.59;99850.04;86183;1288;26584;-76
2023/01/03 08:39:10;;;;;;;53.90;30.40;;;;;;;5.47;87.77;99847.92;86330;1287;23199;-76
2023/01/03 08:41:14;;;;;;;45.60;30.30;;;;;;;5.51;87.82;99848.92;86332;1284;98690;-78
2023/01/03 08:43:17;;;;;;;44.10;27.70;;;;;;;5.54;87.87;99854.29;86427;1287;25376;-76
2023/01/03 08:45:19;;;;;;;53.10;31.80;;;;;;;5.58;87.66;99849.88;86817;1288;22495;-77
2023/01/03 08:47:21;;;;;;;48.90;30.90;;;;;;;5.63;87.93;99853.12;86342;1281;97663;-76
2023/01/03 08:49:24;;;;;;;50.90;31.20;;;;;;;5.67;87.82;99857.25;86249;1298;22506;-76
2023/01/03 08:51:28;;;;;;;53.10;32.00;;;;;;;5.72;87.81;99858.58;86407;1281;23256;-76
2023/01/03 08:53:30;;;;;;;57.10;32.60;;;;;;;5.69;87.74;99847.63;86397;1289;98792;-76
2023/01/03 08:55:33;;;;;;;48.30;28.80;;;;;;;5.83;88.04;99860.85;86410;1287;22472;-76
2023/01/03 08:57:34;;;;;;;53.70;31.20;;;;;;;6.03;88.22;99865.64;86329;1281;98325;-76
2023/01/03 08:59:36;;;;;;;54.60;31.60;;;;;;;6.20;88.24;99864.86;86259;1288;25453;-75
2023/01/03 09:01:39;;;;;;;49.80;31.20;;;;;;;6.37;88.03;99860.91;86249;1296;22443;-75
2023/01/03 09:03:40;;;;;;;54.60;31.20;;;;;;;6.48;88.26;99854.80;86128;1287;99326;-75
2023/01/03 09:05:42;;;;;;;55.80;35.60;;;;;;;6.58;88.19;99856.89;86055;1283;22490;-77
2023/01/03 09:07:44;;;;;;;50.80;31.40;;;;;;;6.65;87.96;99858.16;86259;1288;22532;-77
2023/01/03 09:09:45;;;;;;;60.30;32.00;;;;;;;6.74;88.13;99856.09;86141;1288;99449;-76
2023/01/03 09:11:47;;;;;;;48.60;30.60;;;;;;;6.86;87.93;99853.24;86175;1288;22679;-75
2023/01/03 09:13:49;;;;;;;45.50;27.70;;;;;;;6.99;87.93;99852.99;86249;1290;22455;-75
2023/01/03 09:15:59;;;;;;;41.90;27.40;;;;;;;7.10;87.73;99855.58;86200;1288;99804;-76
2023/01/03 09:18:01;;;;;;;40.80;25.80;;;;;;;7.19;87.58;99858.20;86263;1287;22500;-75
2023/01/03 09:20:03;;;;;;;38.20;25.60;;;;;;;7.26;87.47;99852.29;86568;1284;24568;-75
2023/01/03 09:22:04;;;;;;;34.30;20.20;;;;;;;7.32;87.63;99855.48;86264;1287;99499;-75
2023/01/03 09:24:06;;;;;;;30.90;21.70;;;;;;;7.38;87.41;99856.77;86229;1287;25906;-76
2023/01/03 09:26:08;;;;;;;26.70;18.90;;;;;;;7.43;87.39;99852.98;86227;1292;24336;-76
2023/01/03 09:28:11;;;;;;;26.50;17.70;;;;;;;7.48;87.17;99857.24;86090;1287;98991;-76
2023/01/03 09:30:14;;;;;;;26.00;18.80;;;;;;;7.52;87.31;99857.50;86157;1287;22577;-74
2023/01/03 09:32:16;;;;;;;29.40;18.00;;;;;;;7.56;87.35;99856.02;85982;1287;22714;-75
2023/01/03 09:34:18;;;;;;;24.90;15.50;;;;;;;7.58;87.11;99859.66;85824;1287;98988;-76
2023/01/03 09:36:20;;;;;;;18.90;11.40;;;;;;;7.60;86.91;99859.97;85957;1280;23453;-76
2023/01/03 09:38:22;;;;;;;13.70;8.30;;;;;;;7.63;87.12;99863.40;86048;1288;23253;-76
2023/01/03 09:40:24;;;;;;;9.60;7.80;;;;;;;7.67;86.70;99862.27;87727;1291;99896;-76
2023/01/03 09:44:48;;;;;;;;;;;;;;;7.82;87.04;99861.23;87936;1297;22496;-78
2023/01/03 09:46:49;;;;;;;11.30;7.10;;;;;;;7.93;87.27;99857.14;87945;1302;83959;-77
2023/01/03 09:48:54;;;;;;;12.40;6.90;;;;;;;8.01;87.05;99857.30;87896;1290;22524;-76
2023/01/03 09:50:55;;;;;;;13.50;7.00;;;;;;;7.96;86.72;99842.01;88049;1314;22394;-76
2023/01/03 10:03:42;;;;;;;9.20;7.30;;;;;;;8.26;86.43;99866.86;87801;1288;23708;-76
2023/01/03 10:05:59;;;;;;;12.00;8.60;;;;;;;8.41;86.39;99865.79;87186;1293;22510;-76
2023/01/03 10:08:11;;;;;;;10.70;9.50;;;;;;;8.48;86.40;99861.79;86944;1297;22474;-76
2023/01/03 10:10:29;;;;;;;13.90;11.00;;;;;;;8.56;85.98;99863.00;86849;1293;97928;-76
2023/01/03 10:12:41;;;;;;;20.50;13.00;;;;;;;8.68;86.24;99861.45;87028;1291;22637;-76
2023/01/03 10:15:12;;;;;;;23.20;14.70;;;;;;;8.81;86.39;99857.60;87209;1294;22445;-76
2023/01/03 10:17:32;;;;;;;22.40;15.00;;;;;;;8.78;85.79;99855.58;87052;1288;98099;-75
2023/01/03 10:19:46;;;;;;;19.20;14.20;;;;;;;8.75;85.69;99860.76;87099;1290;22521;-77
2023/01/03 10:22:06;;;;;;;25.30;16.60;;;;;;;8.70;85.65;99859.65;87033;1287;99123;-77
2023/01/03 10:24:25;;;;;;;29.80;16.70;;;;;;;8.72;85.80;99860.84;87246;1293;22495;-77
2023/01/03 10:26:31;;;;;;;20.70;15.40;;;;;;;8.84;85.93;99856.83;86991;1287;22442;-77
2023/01/03 10:28:39;;;;;;;26.60;19.40;;;;;;;9.02;85.82;99854.60;86876;1294;98837;-76
2023/01/03 10:30:46;;;;;;;29.60;19.00;;;;;;;9.18;85.82;99858.36;86858;1297;22747;-76
2023/01/03 10:32:57;;;;;;;24.00;17.30;;;;;;;9.31;85.60;99860.43;87097;1294;22525;-76
2023/01/03 10:35:01;;;;;;;32.20;18.30;;;;;;;9.37;85.66;99857.98;87097;1291;97864;-75
2023/01/03 10:37:18;;;;;;;28.20;18.10;;;;;;;9.40;85.50;99845.46;87033;1297;22538;-76
2023/01/03 10:39:31;;;;;;;26.30;16.60;;;;;;;9.51;85.38;99857.40;86966;1307;22501;-76
2023/01/03 10:41:42;;;;;;;24.50;15.60;;;;;;;9.46;85.24;99854.07;87569;1296;97969;-76
2023/01/03 10:43:55;;;;;;;26.70;17.50;;;;;;;9.35;85.11;99852.77;87411;1297;22505;-76
2023/01/03 10:46:05;;;;;;;25.00;17.60;;;;;;;9.30;84.97;99858.01;87240;1302;98255;-75